Bergara, Spain
Current Conditions -  °F | °C
As of 11:00 PM on Sunday 23 Nov 2014 (Local Time) from LEVT Reporting Station
Scattered Clouds Scattered Clouds  
Wind Chill: 57°   Ceiling: Unl
Heat Index: 57°   Visibility: 6mi
Dew Point: 52°   Wind: 2mph
Humidity: 82%   Direction: NA
Pressure: 30"   Gusts: NA
Location:  43.12°N, 2.42°W
Report Text: LEVT 232200Z VRB02KT 9999 SCT070 14/11 Q1016
Loading
Personal Weather Stations






























Interactive Weather Map New forecast layout! Learn more

10-Day Weather Forecast

Advertisements
Track Severe Weather on mobile